Aérodrome :
LOGIN :

S'inscrire | Disclaimer

   EN    FR    IT 

 










Légende :    VFR   VFR Marginal   IFR   IFR Intensif   IFR Très Intensif
Visi : 
Plafond : 
>= 8 km
>= 3000ft
5 à 8 km
1000 à 3000 ft
1500m à 5 km
500 à 1000 ft
800 à 1500m
200 à 500 ft
< 800m
< 200 ft
Symboles :   Orages  Brouillard  Fortes neiges  Fortes précipitations  Vent > 20 kt
SIGMETs :   Divers  Orages  Givrage  Turbulence  Onde Orograph.  Cendres Volcan.






- Altitude de l'aérodrome : 359 ft
- Code IATA : DEB


LHDC - Debrecen

DERNIER METAR :
  • 291345Z AUTO 20005KT 9000 OVC021 02/M01 Q1021

METARs EXPIRÉS :
  • 291315Z AUTO 24007KT 9000 OVC019 01/M02 Q1021
  • 291245Z AUTO 25007KT 9000 OVC019 02/M01 Q1021
  • 291215Z AUTO 26006KT 230V300 9000 BKN016 02/M01 Q1021
  • 291145Z AUTO 25006KT 220V280 9000 OVC022 02/M01 Q1021
  • 291115Z AUTO 26007KT 230V290 9000 OVC020 02/M01 Q1021

Prévision TAF périmée.



MET'MAP, la Météo Aéronautique d'un coup d'oeil ! - Copyright ORBIFLY Décembre 2007 - Disclaimer

ORBIFLY MET'MAP TEAM :

Programmation & Développement : Alexandra Zaïnal
Sur une idée originale de : Baudouin d'Aumeries
Assistance à la programmation : Marc-Olivier Méhu
Soutien technique & logistique : Manuel Goepfert

Contact : metmap@orbifly.com




SOURCES & CREDITS :

   NOAA